Terminal Aerodrome Forecast
Issued by NWS Missoula, MT

Home | Current Version | Previous Version | Text Only | Print | Product List | Glossary On
Versions: 1 2 3 4 5 6 7 8 9 10 11 12 13 14 15 16 17
679
FTUS45 KMSO 182320
TAFBTM
TAF
KBTM 182320Z 1900/1924 25009KT P6SM SCT050 SCT150
     FM190200 16005KT P6SM SCT150
     FM192000 21008KT P6SM SCT150=

USA.gov is the U.S. government's official web portal to all federal, state and local government web resources and services.